createdAt,value
2019-02-05T00:02:18.209Z,-4.31
2019-02-05T00:04:49.118Z,-4.31
2019-02-05T00:07:19.738Z,-4.37
2019-02-05T00:09:50.436Z,-4.39
2019-02-05T00:12:21.817Z,-4.43
2019-02-05T00:14:52.368Z,-4.48
2019-02-05T00:17:22.841Z,-4.60
2019-02-05T00:19:53.467Z,-4.66
2019-02-05T00:22:24.575Z,-4.68
2019-02-05T00:24:55.238Z,-4.74
2019-02-05T00:27:25.920Z,-4.84
2019-02-05T00:29:56.899Z,-4.89
2019-02-05T00:32:27.539Z,-4.95
2019-02-05T00:34:58.069Z,-5.01
2019-02-05T00:37:28.563Z,-5.10
2019-02-05T00:39:59.184Z,-5.17
2019-02-05T00:42:29.830Z,-5.21
2019-02-05T00:45:00.423Z,-5.22
2019-02-05T00:47:32.325Z,-5.37
2019-02-05T00:50:03.299Z,-5.41
2019-02-05T00:52:33.799Z,-5.41
2019-02-05T00:55:04.929Z,-5.46
2019-02-05T00:57:35.500Z,-5.48
2019-02-05T01:00:13.352Z,-5.46
2019-02-05T01:02:43.996Z,-5.43
2019-02-05T01:05:15.070Z,-5.39
2019-02-05T01:07:45.898Z,-5.32
2019-02-05T01:10:17.132Z,-5.24
2019-02-05T01:12:47.874Z,-5.13
2019-02-05T01:15:19.472Z,-5.11
2019-02-05T01:17:50.068Z,-5.10
2019-02-05T01:20:20.687Z,-5.12
2019-02-05T01:22:51.511Z,-5.17
2019-02-05T01:25:22.533Z,-5.17
2019-02-05T01:27:53.574Z,-5.19
2019-02-05T01:30:26.807Z,-5.19
2019-02-05T01:32:58.880Z,-5.23
2019-02-05T01:35:29.324Z,-5.29
2019-02-05T01:38:18.913Z,-5.18
2019-02-05T01:40:49.455Z,-5.18
2019-02-05T01:43:20.005Z,-5.22
2019-02-05T01:45:50.610Z,-5.32
2019-02-05T01:48:21.178Z,-5.33
2019-02-05T01:50:51.671Z,-5.39
2019-02-05T01:53:22.345Z,-5.44
2019-02-05T01:55:52.982Z,-5.51
2019-02-05T01:58:23.418Z,-5.59
2019-02-05T02:00:53.911Z,-5.73
2019-02-05T02:03:24.881Z,-5.82
2019-02-05T02:05:55.510Z,-5.85
2019-02-05T02:08:26.130Z,-5.87
2019-02-05T02:10:56.772Z,-5.84
2019-02-05T02:13:27.326Z,-5.82
2019-02-05T02:15:58.039Z,-5.92
2019-02-05T02:18:28.684Z,-5.97
2019-02-05T02:20:59.281Z,-5.96
2019-02-05T02:23:29.961Z,-6.07
2019-02-05T02:26:00.603Z,-6.10
2019-02-05T02:28:31.458Z,-6.11
2019-02-05T02:31:02.562Z,-6.19
2019-02-05T02:33:33.163Z,-6.15
2019-02-05T02:36:04.004Z,-6.15
2019-02-05T02:38:34.634Z,-6.22
2019-02-05T02:41:05.308Z,-6.25
2019-02-05T02:43:35.861Z,-6.25
2019-02-05T02:46:07.021Z,-6.24
2019-02-05T02:48:37.579Z,-6.25
2019-02-05T02:51:08.006Z,-6.17
2019-02-05T02:53:38.685Z,-6.07
2019-02-05T02:56:09.420Z,-6.00
2019-02-05T02:58:39.941Z,-5.92
2019-02-05T03:01:10.657Z,-5.87
2019-02-05T03:03:41.379Z,-5.67
2019-02-05T03:06:15.142Z,-5.70
2019-02-05T03:08:45.689Z,-5.74
2019-02-05T03:11:16.524Z,-5.81
2019-02-05T03:13:47.238Z,-5.86
2019-02-05T03:16:17.711Z,-5.91
2019-02-05T03:18:48.256Z,-5.86
2019-02-05T03:21:18.666Z,-5.97
2019-02-05T03:23:49.261Z,-5.99
2019-02-05T03:26:19.948Z,-6.02
2019-02-05T03:28:50.520Z,-6.04
2019-02-05T03:31:21.081Z,-6.00
2019-02-05T03:33:51.645Z,-5.97
2019-02-05T03:36:22.117Z,-5.94
2019-02-05T03:38:52.671Z,-5.97
2019-02-05T03:41:23.641Z,-5.97
2019-02-05T03:43:54.379Z,-5.92
2019-02-05T03:46:24.979Z,-5.96
2019-02-05T03:48:56.165Z,-5.90
2019-02-05T03:52:04.956Z,-5.94
2019-02-05T03:55:27.268Z,-5.99
2019-02-05T03:58:55.346Z,-5.96
2019-02-05T04:02:13.598Z,-5.99
2019-02-05T04:05:32.439Z,-6.03
2019-02-05T04:08:34.221Z,-6.09
2019-02-05T04:11:48.341Z,-6.11
2019-02-05T04:15:10.832Z,-6.05
2019-02-05T04:18:24.912Z,-5.99
2019-02-05T04:21:45.311Z,-5.99
2019-02-05T04:24:56.119Z,-6.02
2019-02-05T04:28:16.732Z,-6.01
2019-02-05T04:31:15.933Z,-5.96
2019-02-05T04:34:32.557Z,-5.91
2019-02-05T04:37:44.115Z,-5.93
2019-02-05T04:40:53.439Z,-6.00
2019-02-05T04:44:09.877Z,-6.03
2019-02-05T04:47:26.120Z,-6.07
2019-02-05T04:50:39.071Z,-6.08
2019-02-05T04:53:53.145Z,-6.12
2019-02-05T04:56:53.197Z,-6.10
2019-02-05T05:00:07.900Z,-6.11
2019-02-05T05:03:22.651Z,-6.13
2019-02-05T05:06:34.829Z,-6.18
2019-02-05T05:09:36.085Z,-6.15
2019-02-05T05:12:06.704Z,-6.11
2019-02-05T05:14:37.399Z,-6.08
2019-02-05T05:17:08.649Z,-6.05
2019-02-05T05:19:39.266Z,-6.03
2019-02-05T05:22:10.039Z,-6.02
2019-02-05T05:24:40.751Z,-5.99
2019-02-05T05:27:13.032Z,-5.99
2019-02-05T05:29:44.396Z,-5.99
2019-02-05T05:32:15.099Z,-5.98
2019-02-05T05:34:45.651Z,-5.97
2019-02-05T05:37:13.851Z,-5.98
2019-02-05T05:39:44.535Z,-6.02
2019-02-05T05:42:15.428Z,-6.05
2019-02-05T05:44:46.524Z,-6.01
2019-02-05T05:47:17.101Z,-6.04
2019-02-05T05:49:47.935Z,-6.07
2019-02-05T05:52:18.622Z,-6.04
2019-02-05T05:54:49.360Z,-6.05
2019-02-05T05:57:19.957Z,-6.06
2019-02-05T05:59:50.823Z,-6.07
2019-02-05T06:02:21.735Z,-6.05
2019-02-05T06:04:52.542Z,-6.07
2019-02-05T06:07:23.041Z,-6.08
2019-02-05T06:09:53.591Z,-6.09
2019-02-05T06:12:24.252Z,-6.09
2019-02-05T06:14:54.700Z,-6.08
2019-02-05T06:17:25.220Z,-6.04
2019-02-05T06:19:55.898Z,-6.04
2019-02-05T06:22:26.607Z,-6.08
2019-02-05T06:24:57.281Z,-6.04
2019-02-05T06:27:28.212Z,-6.02
2019-02-05T06:29:58.737Z,-5.99
2019-02-05T06:32:29.606Z,-5.97
2019-02-05T06:35:00.492Z,-5.93
2019-02-05T06:37:31.138Z,-5.94
2019-02-05T06:40:01.774Z,-5.92
2019-02-05T06:42:33.045Z,-5.77
2019-02-05T06:45:05.103Z,-5.58
2019-02-05T06:47:35.675Z,-5.34
2019-02-05T06:50:08.282Z,-4.97
2019-02-05T06:52:38.988Z,-4.50
2019-02-05T06:55:10.512Z,-4.52
2019-02-05T06:57:41.251Z,-4.22
2019-02-05T07:00:18.024Z,-4.22
2019-02-05T07:02:49.233Z,-4.27
2019-02-05T07:05:19.986Z,-4.45
2019-02-05T07:07:50.629Z,-5.03
2019-02-05T07:10:22.935Z,-4.82
2019-02-05T07:12:53.796Z,-4.69
2019-02-05T07:15:24.349Z,-4.79
2019-02-05T07:17:54.952Z,-4.88
2019-02-05T07:20:25.557Z,-4.94
2019-02-05T07:22:56.602Z,-4.88
2019-02-05T07:25:27.254Z,-5.02
2019-02-05T07:27:57.852Z,-5.00
2019-02-05T07:30:28.514Z,-4.95
2019-02-05T07:32:59.175Z,-4.96
2019-02-05T07:35:29.797Z,-4.86
2019-02-05T07:38:00.882Z,-4.53
2019-02-05T07:40:31.562Z,-4.15
2019-02-05T07:43:02.437Z,-3.43
2019-02-05T07:45:33.148Z,-2.76
2019-02-05T07:48:03.782Z,-1.67
2019-02-05T07:50:34.431Z,-0.17
2019-02-05T07:53:05.641Z,0.73
2019-02-05T07:55:36.244Z,0.46
2019-02-05T07:58:07.095Z,1.03
2019-02-05T08:00:37.907Z,1.24
2019-02-05T08:03:08.530Z,0.13
2019-02-05T08:05:39.116Z,-0.21
2019-02-05T08:08:10.323Z,-1.59
2019-02-05T08:10:40.962Z,-2.58
2019-02-05T08:13:11.690Z,-2.77
2019-02-05T08:15:42.490Z,-2.88
2019-02-05T08:18:13.065Z,-3.04
2019-02-05T08:20:43.799Z,-3.30
2019-02-05T08:23:14.550Z,-3.38
2019-02-05T08:25:45.376Z,-3.56
2019-02-05T08:28:16.137Z,-3.79
2019-02-05T08:30:48.923Z,-3.94
2019-02-05T08:33:19.617Z,-4.14
2019-02-05T08:35:50.160Z,-4.11
2019-02-05T08:38:20.751Z,-4.03
2019-02-05T08:40:51.261Z,-3.97
2019-02-05T08:43:21.804Z,-3.65
2019-02-05T08:45:56.726Z,-3.06
2019-02-05T08:48:24.710Z,-2.31
2019-02-05T08:50:55.395Z,-0.98
2019-02-05T08:53:26.051Z,0.77
2019-02-05T08:55:56.533Z,2.50
2019-02-05T08:58:31.050Z,3.39
2019-02-05T09:00:59.491Z,3.70
2019-02-05T09:03:30.073Z,4.45
2019-02-05T09:06:00.656Z,3.77
2019-02-05T09:08:31.318Z,4.38
2019-02-05T09:11:01.961Z,4.63
2019-02-05T09:13:32.640Z,5.35
2019-02-05T09:16:03.307Z,6.97
2019-02-05T09:18:34.093Z,7.09
2019-02-05T09:21:04.919Z,5.70
2019-02-05T09:23:35.862Z,7.82
2019-02-05T09:26:06.559Z,6.91
2019-02-05T09:28:37.110Z,8.43
2019-02-05T09:31:07.645Z,9.41
2019-02-05T09:33:38.419Z,9.97
2019-02-05T09:36:12.555Z,9.16
2019-02-05T09:38:43.366Z,10.24
2019-02-05T09:41:13.864Z,10.26
2019-02-05T09:43:44.718Z,9.08
2019-02-05T09:46:15.379Z,8.32
2019-02-05T09:48:45.948Z,9.11
2019-02-05T09:51:16.464Z,8.72
2019-02-05T09:53:47.355Z,7.99
2019-02-05T09:56:17.791Z,8.42
2019-02-05T09:58:48.140Z,6.90
2019-02-05T10:01:18.736Z,8.21
2019-02-05T10:03:49.268Z,5.75
2019-02-05T10:06:19.801Z,10.17
2019-02-05T10:08:50.660Z,9.61
2019-02-05T10:11:21.164Z,7.10
2019-02-05T10:13:51.480Z,9.36
2019-02-05T10:16:22.040Z,7.36
2019-02-05T10:18:52.751Z,7.75
2019-02-05T10:21:23.212Z,11.88
2019-02-05T10:23:53.887Z,14.35
2019-02-05T10:26:24.481Z,8.75
2019-02-05T10:28:55.037Z,12.64
2019-02-05T10:31:25.631Z,12.93
2019-02-05T10:33:56.575Z,13.13
2019-02-05T10:36:27.172Z,13.13
2019-02-05T10:38:58.166Z,12.06
2019-02-05T10:41:28.811Z,13.17
2019-02-05T10:43:59.346Z,13.59
2019-02-05T10:46:30.151Z,13.89
2019-02-05T10:49:03.299Z,14.59
2019-02-05T10:51:33.028Z,14.69
2019-02-05T10:54:03.565Z,14.18
2019-02-05T10:56:34.131Z,14.16
2019-02-05T10:59:05.211Z,14.17
2019-02-05T11:01:35.965Z,14.00
2019-02-05T11:04:06.826Z,14.08
2019-02-05T11:06:37.619Z,13.84
2019-02-05T11:09:11.377Z,14.10
2019-02-05T11:11:42.096Z,12.89
2019-02-05T11:14:12.801Z,14.14
2019-02-05T11:16:43.722Z,14.63
2019-02-05T11:19:14.404Z,14.00
2019-02-05T11:21:44.902Z,13.68
2019-02-05T11:24:15.715Z,14.16
2019-02-05T11:26:46.563Z,13.85
2019-02-05T11:29:17.256Z,14.04
2019-02-05T11:31:47.948Z,13.92
2019-02-05T11:34:18.553Z,14.11
2019-02-05T11:36:49.217Z,13.95
2019-02-05T11:39:19.813Z,13.24
2019-02-05T11:41:50.379Z,13.19
2019-02-05T11:44:21.023Z,13.42
2019-02-05T11:46:51.755Z,10.14
2019-02-05T11:49:22.490Z,10.26
2019-02-05T11:51:53.139Z,8.22
2019-02-05T11:54:23.827Z,10.43
2019-02-05T11:56:54.524Z,8.89
2019-02-05T11:59:25.155Z,10.84
2019-02-05T12:01:55.957Z,9.98
2019-02-05T12:04:27.040Z,10.30
2019-02-05T12:06:57.798Z,9.34
2019-02-05T12:09:28.451Z,8.20
2019-02-05T12:11:59.140Z,8.01
2019-02-05T12:14:29.758Z,10.55
2019-02-05T12:17:00.337Z,8.45
2019-02-05T12:19:31.049Z,7.95
2019-02-05T12:22:01.808Z,9.87
2019-02-05T12:24:32.599Z,8.77
2019-02-05T12:27:03.188Z,11.17
2019-02-05T12:29:33.909Z,9.38
2019-02-05T12:32:04.744Z,10.01
2019-02-05T12:34:35.748Z,9.20
2019-02-05T12:37:06.430Z,9.71
2019-02-05T12:39:37.148Z,6.96
2019-02-05T12:42:07.808Z,7.17
2019-02-05T12:44:38.518Z,7.35
2019-02-05T12:47:09.089Z,6.97
2019-02-05T12:49:40.008Z,7.73
2019-02-05T12:52:10.921Z,7.63
2019-02-05T12:54:41.657Z,6.99
2019-02-05T12:57:12.221Z,6.32
2019-02-05T12:59:44.320Z,6.05
2019-02-05T13:02:15.229Z,6.13
2019-02-05T13:04:46.844Z,6.11
2019-02-05T13:07:17.938Z,5.99
2019-02-05T13:09:48.604Z,5.91
2019-02-05T13:12:19.221Z,5.85
2019-02-05T13:14:49.928Z,5.74
2019-02-05T13:17:20.613Z,5.63
2019-02-05T13:19:51.262Z,5.55
2019-02-05T13:22:21.949Z,5.53
2019-02-05T13:24:52.509Z,5.45
2019-02-05T13:27:23.208Z,5.32
2019-02-05T13:29:54.393Z,5.07
2019-02-05T13:32:25.003Z,5.01
2019-02-05T13:34:55.674Z,4.92
2019-02-05T13:37:26.329Z,4.73
2019-02-05T13:39:57.025Z,4.81
2019-02-05T13:42:28.099Z,4.68
2019-02-05T13:44:58.674Z,4.57
2019-02-05T13:47:29.455Z,4.46
2019-02-05T13:49:59.883Z,4.40
2019-02-05T13:52:30.510Z,4.33
2019-02-05T13:55:01.109Z,4.14
2019-02-05T13:57:31.643Z,4.06
2019-02-05T14:00:02.203Z,4.00
2019-02-05T14:02:32.875Z,4.00
2019-02-05T14:05:03.627Z,3.96
2019-02-05T14:07:34.221Z,3.94
2019-02-05T14:10:10.143Z,3.86
2019-02-05T14:12:40.824Z,3.77
2019-02-05T14:15:12.737Z,3.57
2019-02-05T14:17:43.341Z,3.45
2019-02-05T14:20:14.669Z,3.34
2019-02-05T14:22:45.548Z,3.29
2019-02-05T14:25:16.412Z,3.33
2019-02-05T14:27:47.003Z,3.51
2019-02-05T14:30:27.150Z,3.41
2019-02-05T14:32:57.829Z,3.40
2019-02-05T14:35:28.589Z,3.45
2019-02-05T14:37:59.329Z,3.36
2019-02-05T14:40:29.929Z,3.28
2019-02-05T14:43:00.589Z,3.21
2019-02-05T14:45:31.228Z,3.11
2019-02-05T14:48:02.343Z,3.01
2019-02-05T14:50:33.983Z,2.93
2019-02-05T14:53:05.973Z,2.88
2019-02-05T14:55:36.641Z,2.80
2019-02-05T14:58:10.549Z,2.76
2019-02-05T15:00:41.580Z,2.75
2019-02-05T15:03:14.131Z,2.74
2019-02-05T15:05:46.373Z,2.73
2019-02-05T15:08:19.023Z,2.71
2019-02-05T15:10:49.722Z,2.64
2019-02-05T15:13:20.324Z,2.65
2019-02-05T15:15:50.989Z,2.60
2019-02-05T15:18:23.682Z,2.37
2019-02-05T15:20:54.560Z,2.37
2019-02-05T15:23:25.283Z,2.41
2019-02-05T15:25:56.409Z,2.30
2019-02-05T15:28:26.926Z,2.35
2019-02-05T15:30:57.649Z,2.30
2019-02-05T15:33:36.549Z,2.13
2019-02-05T15:36:19.692Z,2.18
2019-02-05T15:38:50.364Z,2.01
2019-02-05T15:41:20.910Z,2.17
2019-02-05T15:43:51.486Z,2.23
2019-02-05T15:46:22.309Z,2.20
2019-02-05T15:48:53.478Z,2.17
2019-02-05T15:51:24.556Z,2.11
2019-02-05T15:53:55.303Z,2.10
2019-02-05T15:56:25.967Z,2.05
2019-02-05T15:58:56.685Z,2.01
2019-02-05T16:01:27.758Z,1.92
2019-02-05T16:03:58.784Z,1.92
2019-02-05T16:06:29.529Z,1.92
2019-02-05T16:09:00.433Z,1.91
2019-02-05T16:11:31.164Z,1.92
2019-02-05T16:14:02.730Z,1.85
2019-02-05T16:16:33.491Z,1.84
2019-02-05T16:19:04.118Z,1.84
2019-02-05T16:21:34.681Z,1.79
2019-02-05T16:24:05.974Z,1.74
2019-02-05T16:26:36.502Z,1.73
2019-02-05T16:29:07.452Z,1.75
2019-02-05T16:31:38.186Z,1.73
2019-02-05T16:34:08.793Z,1.73
2019-02-05T16:36:39.408Z,1.65
2019-02-05T16:39:11.989Z,1.68
2019-02-05T16:41:42.590Z,1.66
2019-02-05T16:44:16.163Z,1.54
2019-02-05T16:46:49.662Z,1.52
2019-02-05T16:49:22.495Z,1.45
2019-02-05T16:51:53.394Z,1.45
2019-02-05T16:54:24.355Z,1.45
2019-02-05T16:56:55.237Z,1.42
2019-02-05T16:59:26.893Z,1.40
2019-02-05T17:01:58.212Z,1.39
2019-02-05T17:04:38.732Z,1.37
2019-02-05T17:07:09.942Z,1.30
2019-02-05T17:09:41.302Z,1.29
2019-02-05T17:12:12.468Z,1.28
2019-02-05T17:14:46.780Z,1.28
2019-02-05T17:17:22.577Z,1.29
2019-02-05T17:19:53.312Z,1.24
2019-02-05T17:22:23.969Z,1.19
2019-02-05T17:24:56.708Z,1.19
2019-02-05T17:27:31.076Z,1.15
2019-02-05T17:30:02.887Z,1.18
2019-02-05T17:32:40.411Z,1.19
2019-02-05T17:35:11.641Z,1.20
2019-02-05T17:37:42.406Z,1.19
2019-02-05T17:40:17.717Z,1.22
2019-02-05T17:42:49.808Z,1.23
2019-02-05T17:45:32.408Z,1.20
2019-02-05T17:48:07.536Z,1.17
2019-02-05T17:50:41.292Z,1.19
2019-02-05T17:53:15.332Z,1.19
2019-02-05T17:55:47.028Z,1.20
2019-02-05T17:58:17.867Z,1.18
2019-02-05T18:00:50.479Z,1.15
2019-02-05T18:03:22.974Z,1.16
2019-02-05T18:05:55.681Z,1.14
2019-02-05T18:08:26.246Z,1.03
2019-02-05T18:10:59.712Z,1.09
2019-02-05T18:13:33.382Z,1.11
2019-02-05T18:16:26.013Z,1.03
2019-02-05T18:18:58.724Z,1.06
2019-02-05T18:21:42.133Z,1.08
2019-02-05T18:24:13.727Z,1.09
2019-02-05T18:26:45.483Z,1.11
2019-02-05T18:29:16.008Z,1.10
2019-02-05T18:31:52.252Z,1.06
2019-02-05T18:34:24.937Z,1.05
2019-02-05T18:36:55.583Z,1.03
2019-02-05T18:39:27.434Z,1.04
2019-02-05T18:41:59.245Z,1.03
2019-02-05T18:44:29.843Z,1.05
2019-02-05T18:47:05.120Z,0.99
2019-02-05T18:49:40.032Z,1.00
2019-02-05T18:52:16.110Z,1.02
2019-02-05T18:54:47.818Z,0.97
2019-02-05T18:57:30.667Z,0.98
2019-02-05T19:00:05.289Z,0.99
2019-02-05T19:02:37.103Z,0.97
2019-02-05T19:05:11.313Z,0.97
2019-02-05T19:07:43.897Z,0.99
2019-02-05T19:10:28.274Z,0.97
2019-02-05T19:13:06.223Z,0.96
2019-02-05T19:15:39.303Z,0.96
2019-02-05T19:18:10.885Z,0.93
2019-02-05T19:20:44.697Z,0.94
2019-02-05T19:23:17.734Z,0.91
2019-02-05T19:26:09.004Z,0.94
2019-02-05T19:28:54.133Z,0.95
2019-02-05T19:31:34.837Z,0.94
2019-02-05T19:34:09.762Z,0.98
2019-02-05T19:36:42.523Z,0.96
2019-02-05T19:39:21.572Z,0.95
2019-02-05T19:41:50.728Z,0.93
2019-02-05T19:44:33.536Z,0.96
2019-02-05T19:47:20.532Z,0.94
2019-02-05T19:49:55.613Z,0.93
2019-02-05T19:52:27.770Z,0.94
2019-02-05T19:55:02.761Z,0.93
2019-02-05T19:57:34.171Z,0.94
2019-02-05T20:00:08.050Z,0.93
2019-02-05T20:02:39.096Z,0.91
2019-02-05T20:05:12.003Z,0.91
2019-02-05T20:07:47.746Z,0.88
2019-02-05T20:10:22.491Z,0.87
2019-02-05T20:12:55.432Z,0.88
2019-02-05T20:15:28.425Z,0.89
2019-02-05T20:18:00.983Z,0.89
2019-02-05T20:20:34.200Z,0.87
2019-02-05T20:23:05.260Z,0.87
2019-02-05T20:25:36.080Z,0.88
2019-02-05T20:28:06.749Z,0.88
2019-02-05T20:30:43.342Z,0.90
2019-02-05T20:33:14.321Z,0.91
2019-02-05T20:35:44.939Z,0.90
2019-02-05T20:38:16.847Z,0.92
2019-02-05T20:40:49.794Z,0.92
2019-02-05T20:43:22.177Z,0.94
2019-02-05T20:45:58.010Z,0.90
2019-02-05T20:48:39.493Z,0.93
2019-02-05T20:51:10.194Z,0.94
2019-02-05T20:53:44.079Z,0.93
2019-02-05T20:56:16.750Z,0.94
2019-02-05T20:58:53.336Z,0.92
2019-02-05T21:01:31.342Z,0.88
2019-02-05T21:04:05.466Z,0.91
2019-02-05T21:06:40.722Z,0.90
2019-02-05T21:09:20.487Z,0.91
2019-02-05T21:11:51.202Z,0.95
2019-02-05T21:14:21.893Z,0.93
2019-02-05T21:16:57.323Z,0.93
2019-02-05T21:19:40.322Z,0.95
2019-02-05T21:22:10.992Z,0.94
2019-02-05T21:24:45.121Z,0.90
2019-02-05T21:27:18.616Z,0.89
2019-02-05T21:29:54.773Z,0.92
2019-02-05T21:32:26.402Z,0.95
2019-02-05T21:34:56.916Z,0.99
2019-02-05T21:37:27.589Z,0.97
2019-02-05T21:40:02.592Z,0.97
2019-02-05T21:42:35.255Z,0.97
2019-02-05T21:45:09.851Z,0.97
2019-02-05T21:47:44.031Z,0.96
2019-02-05T21:50:20.804Z,0.95
2019-02-05T21:52:52.887Z,0.98
2019-02-05T21:55:23.890Z,1.00
2019-02-05T21:57:54.872Z,0.93
2019-02-05T22:00:30.988Z,0.95
2019-02-05T22:03:01.813Z,0.98
2019-02-05T22:05:32.541Z,0.91
2019-02-05T22:08:03.960Z,0.89
2019-02-05T22:10:34.715Z,0.89
2019-02-05T22:13:07.244Z,0.84
2019-02-05T22:15:39.121Z,0.90
2019-02-05T22:18:09.715Z,0.86
2019-02-05T22:20:40.549Z,0.87
2019-02-05T22:23:11.392Z,0.90
2019-02-05T22:25:42.034Z,0.92
2019-02-05T22:28:12.661Z,0.90
2019-02-05T22:30:43.164Z,0.83
2019-02-05T22:33:13.723Z,0.88
2019-02-05T22:35:44.331Z,0.91
2019-02-05T22:38:15.006Z,0.84
2019-02-05T22:40:45.577Z,0.84
2019-02-05T22:43:16.315Z,0.88
2019-02-05T22:45:47.010Z,0.84
2019-02-05T22:48:20.478Z,0.78
2019-02-05T22:50:51.284Z,0.79
2019-02-05T22:53:22.780Z,0.80
2019-02-05T22:55:53.335Z,0.77
2019-02-05T22:58:24.127Z,0.78
2019-02-05T23:01:39.912Z,0.83
2019-02-05T23:04:51.305Z,0.87
2019-02-05T23:07:24.653Z,0.85
2019-02-05T23:10:33.362Z,0.83
2019-02-05T23:13:09.609Z,0.78
2019-02-05T23:15:44.687Z,0.81
2019-02-05T23:18:16.274Z,0.84
2019-02-05T23:20:46.981Z,0.87
2019-02-05T23:23:17.660Z,0.84
2019-02-05T23:25:48.359Z,0.72
2019-02-05T23:28:18.873Z,0.77
2019-02-05T23:30:49.737Z,0.79
2019-02-05T23:33:20.468Z,0.81
2019-02-05T23:35:51.147Z,0.84
2019-02-05T23:38:29.037Z,0.84
2019-02-05T23:40:54.177Z,0.86
2019-02-05T23:43:24.636Z,0.83
2019-02-05T23:46:01.440Z,0.80
2019-02-05T23:48:27.588Z,0.79
2019-02-05T23:50:58.074Z,0.80
2019-02-05T23:53:28.978Z,0.73
2019-02-05T23:55:59.717Z,0.70
2019-02-05T23:58:31.349Z,0.74
